Terminal Aerodrome Forecast
Issued by NWS Albuquerque, NM

Home | Current Version | Previous Version | Text Only | Print | Product List | Glossary On
Versions: 1 2 3 4 5 6 7 8 9 10 11 12 13 14 15 16 17
000
FTUS45 KABQ 302000 AAA
TAFABQ
TAF AMD
KABQ 302007Z 3020/3118 08007KT 4SM -SNRA BR SCT005 OVC025
      TEMPO 3020/3024 36007KT 1SM BR OVC003
     FM310400 09012G18KT 3SM -SNRA BR SCT005 BKN009
      TEMPO 3105/3108 1SM -SNRA BR OVC020
     FM311100 02005KT 5SM -SN BR OVC025=

USA.gov is the U.S. government's official web portal to all federal, state and local government web resources and services.